createdAt,value
2018-10-19T05:14:25.959Z,1.23
2018-10-19T05:16:55.264Z,1.60
2018-10-19T05:19:25.482Z,1.60
2018-10-19T05:21:54.956Z,1.63
2018-10-19T05:24:25.482Z,2.10
2018-10-19T05:26:54.841Z,2.83
2018-10-19T05:29:24.753Z,1.43
2018-10-19T05:31:54.159Z,1.10
2018-10-19T05:34:23.989Z,1.30
2018-10-19T05:36:53.353Z,1.43
2018-10-19T05:39:22.799Z,2.03
2018-10-19T05:41:52.301Z,1.60
2018-10-19T05:44:21.222Z,1.90
2018-10-19T05:46:52.136Z,1.30
2018-10-19T05:49:21.239Z,1.70
2018-10-19T05:51:50.335Z,1.40
2018-10-19T05:54:19.738Z,1.50
2018-10-19T05:56:48.782Z,1.60
2018-10-19T05:59:20.208Z,1.40
2018-10-19T06:01:51.569Z,1.40
2018-10-19T06:04:20.926Z,1.20
2018-10-19T06:06:49.801Z,1.17
2018-10-19T06:09:18.681Z,1.40
2018-10-19T06:11:47.785Z,1.53
2018-10-19T06:14:16.631Z,1.00
2018-10-19T06:16:45.639Z,1.30
2018-10-19T06:19:14.869Z,1.40
2018-10-19T06:21:43.678Z,1.90
2018-10-19T06:24:12.891Z,1.60
2018-10-19T06:26:42.011Z,1.10
2018-10-19T06:29:11.167Z,1.40
2018-10-19T06:31:40.235Z,1.27
2018-10-19T06:34:09.110Z,1.30
2018-10-19T06:36:37.924Z,1.53
2018-10-19T06:39:09.589Z,1.53
2018-10-19T06:41:38.765Z,1.60
2018-10-19T06:44:07.732Z,1.70
2018-10-19T06:46:36.879Z,1.87
2018-10-19T06:49:06.428Z,1.80
2018-10-19T06:51:35.293Z,1.43
2018-10-19T06:54:04.917Z,1.40
2018-10-19T06:56:34.248Z,0.93
2018-10-19T06:59:03.493Z,1.60
2018-10-19T07:01:33.084Z,1.60
2018-10-19T07:04:02.503Z,2.00
2018-10-19T07:06:31.636Z,1.67
2018-10-19T07:09:01.056Z,1.53
2018-10-19T07:11:30.635Z,1.60
2018-10-19T07:13:59.379Z,1.40
2018-10-19T07:16:28.771Z,1.37
2018-10-19T07:18:57.846Z,1.40
2018-10-19T07:21:27.392Z,1.40
2018-10-19T07:23:56.420Z,1.77
2018-10-19T07:26:25.931Z,1.70
2018-10-19T07:28:55.218Z,1.53
2018-10-19T07:31:23.934Z,1.93
2018-10-19T07:33:53.864Z,1.70
2018-10-19T07:36:23.076Z,1.77
2018-10-19T07:38:51.921Z,1.60
2018-10-19T07:41:21.352Z,1.73
2018-10-19T07:43:50.163Z,2.00
2018-10-19T07:46:19.202Z,1.57
2018-10-19T07:48:47.690Z,2.03
2018-10-19T07:51:16.493Z,2.00
2018-10-19T07:53:46.060Z,1.77
2018-10-19T07:56:14.882Z,2.23
2018-10-19T07:58:43.984Z,1.90
2018-10-19T08:01:12.924Z,1.50
2018-10-19T08:03:41.835Z,1.50
2018-10-19T08:06:11.477Z,1.70
2018-10-19T08:08:40.305Z,1.07
2018-10-19T08:11:09.102Z,1.80
2018-10-19T08:13:38.052Z,2.10
2018-10-19T08:16:07.042Z,2.33
2018-10-19T08:18:35.802Z,2.43
2018-10-19T08:21:04.850Z,2.87
2018-10-19T08:23:34.290Z,1.90
2018-10-19T08:26:03.612Z,2.53
2018-10-19T08:28:32.623Z,2.20
2018-10-19T08:31:01.865Z,1.53
2018-10-19T08:33:30.782Z,1.83
2018-10-19T08:36:00.368Z,2.13
2018-10-19T08:38:28.799Z,2.80
2018-10-19T08:40:58.318Z,2.50
2018-10-19T08:43:27.564Z,1.90
2018-10-19T08:46:00.521Z,3.10
2018-10-19T08:48:29.576Z,2.30
2018-10-19T08:50:59.102Z,2.70
2018-10-19T08:53:28.506Z,3.63
2018-10-19T08:55:57.923Z,2.77
2018-10-19T08:58:27.502Z,2.07
2018-10-19T09:00:56.790Z,2.10
2018-10-19T09:03:26.303Z,3.00
2018-10-19T09:05:56.011Z,3.07
2018-10-19T09:08:25.586Z,3.10
2018-10-19T09:10:54.441Z,3.90
2018-10-19T09:13:23.839Z,2.70
2018-10-19T09:15:52.720Z,4.00
2018-10-19T09:18:21.954Z,2.70
2018-10-19T09:20:51.338Z,2.47
2018-10-19T09:23:20.516Z,1.57
2018-10-19T09:25:49.281Z,3.03
2018-10-19T09:28:18.452Z,3.97
2018-10-19T09:30:48.127Z,3.23
2018-10-19T09:33:17.446Z,3.80
2018-10-19T09:35:46.836Z,3.77
2018-10-19T09:38:15.754Z,4.10
2018-10-19T09:40:45.161Z,3.33
2018-10-19T09:43:14.686Z,4.50
2018-10-19T09:45:44.070Z,1.43
2018-10-19T09:48:13.223Z,1.20
2018-10-19T09:50:42.471Z,4.50
2018-10-19T09:53:11.452Z,5.10
2018-10-19T09:55:41.058Z,4.20
2018-10-19T09:58:10.458Z,4.30
2018-10-19T10:00:45.091Z,5.20
2018-10-19T10:03:14.296Z,4.50
2018-10-19T10:05:43.646Z,4.03
2018-10-19T10:08:12.797Z,3.77
2018-10-19T10:10:43.522Z,4.73
2018-10-19T10:13:12.751Z,4.97
2018-10-19T10:15:42.077Z,5.00
2018-10-19T10:18:11.352Z,4.40
2018-10-19T10:20:40.686Z,3.27
2018-10-19T10:23:10.029Z,4.60
2018-10-19T10:25:38.878Z,4.80
2018-10-19T10:28:08.141Z,5.13
2018-10-19T10:30:37.081Z,4.87
2018-10-19T10:33:06.030Z,3.50
2018-10-19T10:35:35.418Z,4.57
2018-10-19T10:38:03.888Z,5.33
2018-10-19T10:40:33.399Z,4.63
2018-10-19T10:43:03.937Z,4.87
2018-10-19T10:45:33.890Z,4.93
2018-10-19T10:48:02.715Z,4.90
2018-10-19T10:50:31.497Z,3.63
2018-10-19T10:53:00.198Z,4.53
2018-10-19T10:55:29.398Z,3.70
2018-10-19T10:57:58.236Z,4.10
2018-10-19T11:00:28.639Z,5.27
2018-10-19T11:02:57.572Z,4.73
2018-10-19T11:05:27.166Z,5.03
2018-10-19T11:07:56.714Z,4.07
2018-10-19T11:10:26.134Z,5.20
2018-10-19T11:12:55.162Z,4.30
2018-10-19T11:15:24.679Z,4.93
2018-10-19T11:17:53.627Z,5.20
2018-10-19T11:20:22.868Z,6.33
2018-10-19T11:22:51.864Z,4.57
2018-10-19T11:25:20.713Z,5.60
2018-10-19T11:27:50.278Z,3.97
2018-10-19T11:30:19.207Z,6.03
2018-10-19T11:32:48.393Z,5.23
2018-10-19T11:35:17.525Z,4.00
2018-10-19T11:37:46.863Z,4.23
2018-10-19T11:40:22.800Z,5.87
2018-10-19T11:42:52.013Z,6.40
2018-10-19T11:45:21.369Z,6.17
2018-10-19T11:47:50.115Z,5.50
2018-10-19T11:50:18.898Z,2.70
2018-10-19T11:52:48.457Z,4.63
2018-10-19T11:55:18.475Z,4.33
2018-10-19T11:57:48.175Z,5.63
2018-10-19T12:00:17.047Z,6.63
2018-10-19T12:02:46.267Z,3.40
2018-10-19T12:05:15.300Z,6.70
2018-10-19T12:07:44.571Z,7.13
2018-10-19T12:10:14.451Z,5.73
2018-10-19T12:12:44.417Z,7.07
2018-10-19T12:15:14.399Z,6.50
2018-10-19T12:17:44.184Z,6.17
2018-10-19T12:20:15.054Z,6.70
2018-10-19T12:22:43.947Z,6.07
2018-10-19T12:25:14.224Z,6.37
2018-10-19T12:27:43.348Z,2.30
2018-10-19T12:30:13.015Z,6.40
2018-10-19T12:32:42.553Z,4.67
2018-10-19T12:35:13.558Z,2.17
2018-10-19T12:37:43.037Z,4.37
2018-10-19T12:40:12.365Z,6.10
2018-10-19T12:42:41.945Z,6.20
2018-10-19T12:46:40.158Z,5.30
2018-10-19T12:49:09.613Z,6.57
2018-10-19T12:51:38.781Z,1.47
2018-10-19T12:54:07.870Z,4.77
2018-10-19T12:56:36.981Z,5.60
2018-10-19T12:59:06.240Z,5.73
2018-10-19T13:01:35.484Z,6.13
2018-10-19T13:04:05.218Z,4.33
2018-10-19T13:06:34.030Z,6.20
2018-10-19T13:09:05.271Z,6.07
2018-10-19T13:11:34.342Z,5.10
2018-10-19T13:14:03.187Z,6.10
2018-10-19T13:16:32.266Z,5.27
2018-10-19T13:19:01.239Z,6.13
2018-10-19T13:21:30.524Z,6.63
2018-10-19T13:24:00.206Z,5.83
2018-10-19T13:26:29.355Z,6.63
2018-10-19T13:28:59.209Z,6.07
2018-10-19T13:31:29.758Z,5.90
2018-10-19T13:33:58.912Z,6.07
2018-10-19T13:36:30.576Z,5.60
2018-10-19T13:38:59.452Z,5.70
2018-10-19T13:41:28.401Z,6.43
2018-10-19T13:43:57.897Z,6.40
2018-10-19T13:46:26.719Z,6.77
2018-10-19T13:48:56.231Z,6.07
2018-10-19T13:51:25.118Z,5.60
2018-10-19T13:53:55.091Z,5.57
2018-10-19T13:56:24.269Z,5.87
2018-10-19T13:58:54.304Z,3.37
2018-10-19T14:01:23.939Z,5.63
2018-10-19T14:03:53.206Z,6.30
2018-10-19T14:06:22.579Z,5.97
2018-10-19T14:08:51.341Z,6.33
2018-10-19T14:11:20.688Z,6.40
2018-10-19T14:13:50.181Z,6.17
2018-10-19T14:16:19.001Z,5.90
2018-10-19T14:18:48.738Z,5.43
2018-10-19T14:21:17.584Z,6.10
2018-10-19T14:23:46.872Z,6.20
2018-10-19T14:26:16.372Z,5.87
2018-10-19T14:28:45.067Z,5.83
2018-10-19T14:31:13.790Z,5.93
2018-10-19T14:33:43.167Z,5.87
2018-10-19T14:36:12.512Z,6.07
2018-10-19T14:38:41.566Z,5.93
2018-10-19T14:41:11.291Z,5.57
2018-10-19T14:43:41.316Z,5.83
2018-10-19T14:46:10.135Z,5.60
2018-10-19T14:48:39.238Z,5.97
2018-10-19T14:51:08.399Z,5.77
2018-10-19T14:53:37.778Z,5.43
2018-10-19T14:56:07.090Z,6.53
2018-10-19T14:58:36.356Z,6.67
2018-10-19T15:01:06.079Z,6.10
2018-10-19T15:03:35.171Z,6.20
2018-10-19T15:06:04.901Z,2.40
2018-10-19T15:08:34.355Z,6.27
2018-10-19T15:11:03.559Z,4.33
2018-10-19T15:13:32.619Z,5.27
2018-10-19T15:16:02.034Z,5.87
2018-10-19T15:18:30.919Z,5.33
2018-10-19T15:20:59.845Z,5.27
2018-10-19T15:23:29.430Z,5.93
2018-10-19T15:25:58.683Z,5.80
2018-10-19T15:28:27.622Z,6.47
2018-10-19T15:30:56.730Z,5.90
2018-10-19T15:33:25.526Z,6.13
2018-10-19T15:35:54.315Z,3.70
2018-10-19T15:38:23.352Z,7.10
2018-10-19T15:40:52.214Z,6.67
2018-10-19T15:43:20.965Z,5.67
2018-10-19T15:45:49.805Z,6.07
2018-10-19T15:48:19.098Z,4.93
2018-10-19T15:50:48.448Z,5.13
2018-10-19T15:53:17.233Z,3.67
2018-10-19T15:55:45.975Z,5.20
2018-10-19T15:58:15.393Z,4.80
2018-10-19T16:00:44.603Z,5.07
2018-10-19T16:03:13.654Z,5.10
2018-10-19T16:05:42.520Z,5.40
2018-10-19T16:08:11.833Z,4.00
2018-10-19T16:10:40.689Z,4.67
2018-10-19T16:13:09.463Z,5.13
2018-10-19T16:15:38.030Z,3.83
2018-10-19T16:18:06.847Z,4.93
2018-10-19T16:20:36.556Z,5.23
2018-10-19T16:23:05.757Z,5.80
2018-10-19T16:25:34.653Z,4.93
2018-10-19T16:28:03.528Z,4.97
2018-10-19T16:30:32.641Z,4.60
2018-10-19T16:33:01.415Z,5.13
2018-10-19T16:35:30.383Z,4.90
2018-10-19T16:37:59.109Z,4.20
2018-10-19T16:40:27.850Z,5.33
2018-10-19T16:42:56.650Z,4.67
2018-10-19T16:45:25.633Z,4.43
2018-10-19T16:47:54.380Z,5.20
2018-10-19T16:50:23.545Z,6.03
2018-10-19T16:52:53.152Z,5.57
2018-10-19T16:55:22.562Z,7.10
2018-10-19T16:57:52.088Z,6.10
2018-10-19T17:00:21.039Z,6.23
2018-10-19T17:02:49.982Z,5.33
2018-10-19T17:05:19.296Z,6.10
2018-10-19T17:07:48.334Z,5.30
2018-10-19T17:10:17.350Z,6.27
2018-10-19T17:12:46.073Z,6.00
2018-10-19T17:15:15.301Z,5.27
2018-10-19T17:17:46.471Z,5.37
2018-10-19T17:20:15.328Z,5.30
2018-10-19T17:22:44.672Z,5.90
2018-10-19T17:25:14.449Z,5.00
2018-10-19T17:27:43.440Z,5.30
2018-10-19T17:30:14.356Z,6.07
2018-10-19T17:32:43.597Z,5.67
2018-10-19T17:35:12.883Z,5.10
2018-10-19T17:37:41.834Z,5.70
2018-10-19T17:40:11.225Z,6.03
2018-10-19T17:42:40.630Z,5.17
2018-10-19T17:45:10.763Z,5.90
2018-10-19T17:47:40.106Z,5.43
2018-10-19T17:50:09.160Z,5.60
2018-10-19T17:52:38.158Z,7.17
2018-10-19T17:55:08.375Z,6.33
2018-10-19T17:57:37.663Z,6.87
2018-10-19T18:00:07.512Z,6.67
2018-10-19T18:02:36.673Z,7.17
2018-10-19T18:05:06.495Z,5.70
2018-10-19T18:07:35.542Z,6.27
2018-10-19T18:10:05.990Z,6.13
2018-10-19T18:12:34.833Z,7.20
2018-10-19T18:15:05.265Z,7.00
2018-10-19T18:17:36.485Z,6.90
2018-10-19T18:20:05.618Z,7.10
2018-10-19T18:22:34.577Z,6.83
2018-10-19T18:25:03.429Z,6.17
2018-10-19T18:27:33.853Z,7.07
2018-10-19T18:30:03.379Z,6.83
2018-10-19T18:32:33.940Z,6.70
2018-10-19T18:35:03.664Z,7.70
2018-10-19T18:37:32.600Z,8.00
2018-10-19T18:40:01.801Z,8.33
2018-10-19T18:42:31.922Z,7.87
2018-10-19T18:45:01.540Z,8.90
2018-10-19T18:47:33.059Z,8.10
2018-10-19T18:50:02.913Z,8.57
2018-10-19T18:52:32.304Z,8.87
2018-10-19T18:55:01.815Z,8.43
2018-10-19T18:57:32.159Z,8.20
2018-10-19T19:00:01.593Z,8.23
2018-10-19T19:02:30.526Z,9.00
2018-10-19T19:04:59.956Z,9.90
2018-10-19T19:07:29.227Z,8.43
2018-10-19T19:10:03.385Z,9.97
2018-10-19T19:12:32.114Z,9.10
2018-10-19T19:15:01.919Z,9.37
2018-10-19T19:17:31.526Z,10.60
2018-10-19T19:20:06.054Z,10.00
2018-10-19T19:22:37.047Z,10.43
2018-10-19T19:25:11.518Z,9.03
2018-10-19T19:27:41.168Z,10.20
2018-10-19T19:30:11.745Z,10.43
2018-10-19T19:32:45.087Z,9.40
2018-10-19T19:35:14.058Z,10.73
2018-10-19T19:37:43.034Z,9.93
2018-10-19T19:40:12.382Z,9.97
2018-10-19T19:42:43.808Z,10.37
2018-10-19T19:45:12.995Z,10.10
2018-10-19T19:47:47.392Z,10.97
2018-10-19T19:50:16.204Z,9.80
2018-10-19T19:52:45.114Z,10.27
2018-10-19T19:55:14.735Z,10.57
2018-10-19T19:57:43.919Z,10.43
2018-10-19T20:00:13.262Z,10.07
2018-10-19T20:02:42.298Z,12.13
2018-10-19T20:05:11.542Z,10.67
2018-10-19T20:07:40.430Z,11.30
2018-10-19T20:10:09.330Z,9.90
2018-10-19T20:12:37.928Z,10.50
2018-10-19T20:15:08.091Z,10.27
2018-10-19T20:17:37.655Z,10.17
2018-10-19T20:20:08.876Z,9.77
2018-10-19T20:22:38.662Z,9.97
2018-10-19T20:25:08.379Z,10.57
2018-10-19T20:27:38.052Z,9.90
2018-10-19T20:30:10.170Z,10.30
2018-10-19T20:32:39.404Z,10.47
2018-10-19T20:35:09.700Z,10.60
2018-10-19T20:37:39.363Z,12.00
2018-10-19T20:40:08.187Z,10.00
2018-10-19T20:42:38.031Z,11.13
2018-10-19T20:45:07.354Z,11.10
2018-10-19T20:47:36.882Z,10.10
2018-10-19T20:50:05.716Z,10.50
2018-10-19T20:52:34.851Z,12.70
2018-10-19T20:55:03.716Z,11.27
